Latest Coastal Weather Observations for Lockhart River

IDQ60701

Issued at 12:51 am EST Monday 1 May 2017 (issued every 10 minutes, with the page automatically refreshed every 10 minutes)

About coastal observations | Map of coastal stations | Coastal observations for QLD | Marine services | Other Formats
Station Details ID: 028008 Name: LOCKHART RIVER AIRPORT Lat: -12.79 Lon: 143.30 Height: 18.5 m
Data from the previous 72 hours. | See also: Recent months at Lockhart River
Date/Time
EST
Temp
°C
Wind Pressure Rain since
9am
mm
Weather Cloud Vis
km
Sea
Height
m
Swell
Dir  Spd
kts
Gust
kts
hPa Trend Height
m
Period
s
Dir
01/12:30am 19.5 CALM 0 0 1014.5 - 0.0 - Partly cloudy - - - - -
01/12:00am 19.6 CALM 0 0 1014.7 - 0.0 - - - - - - -
 
Date/Time
EST
Temp
°C
Wind Pressure Rain since
9am
mm
Weather Cloud Vis
km
Sea
Height
m
Swell
Dir  Spd
kts
Gust
kts
hPa Trend Height
m
Period
s
Dir
30/11:30pm 19.7 CALM 0 0 1014.8 - 0.0 - - - - - - -
30/11:00pm 19.9 CALM 0 0 1014.8 - 0.0 - Partly cloudy - - - - -
30/10:30pm 20.1 CALM 0 0 1014.8 - 0.0 - - - - - - -
30/10:00pm 20.2 CALM 0 0 1014.7 - 0.0 - - - - - - -
30/09:30pm 20.6 CALM 0 0 1014.8 - 0.0 - - - - - - -
30/09:00pm 21.0 CALM 0 0 1014.9 - 0.0 - - - - - - -
30/08:30pm 21.3 CALM 0 0 1014.6 - 0.0 - - - - - - -
30/08:00pm 21.7 CALM 0 0 1014.3 - 0.0 - - - - - - -
30/07:30pm 22.1 CALM 0 0 1013.9 - 0.0 - - - - - - -
30/07:00pm 23.1 CALM 0 0 1013.6 - 0.0 - - - - - - -
30/06:30pm 23.5 CALM 0 0 1013.2 - 0.0 - - - - - - -
30/06:00pm 25.6 CALM 0 0 1012.9 - 0.0 - - - - - - -
30/05:30pm 26.7 ESE 5 8 1012.7 - 0.0 - - - - - - -
30/05:00pm 27.1 ESE 8 11 1012.4 - 0.0 - - - - - - -
30/04:30pm 27.5 ESE 7 9 1012.3 - 0.0 - - - - - - -
30/04:00pm 27.4 E 8 12 1012.1 - 0.0 - - - - - - -
30/03:30pm 27.7 ESE 9 14 1012.1 - 0.0 - Partly cloudy - - - - -
30/03:00pm 27.7 E 8 13 1012.0 - 0.0 - Mostly clear - - - - -
30/02:30pm 27.5 ESE 9 14 1012.2 - 0.0 - Partly cloudy - - - - -
30/02:00pm 27.3 E 9 14 1012.5 - 0.0 - Partly cloudy - - - - -
30/01:30pm 27.4 E 7 13 1012.8 - 0.0 - Partly cloudy - - - - -
30/01:00pm 27.1 E 10 15 1013.1 - 0.0 - Partly cloudy - - - - -
30/12:30pm 27.4 E 10 13 1013.6 - 0.0 - Partly cloudy - - - - -
30/12:00pm 27.3 E 10 15 1014.0 - 0.0 - Mostly cloudy - - - - -
30/11:30am 27.0 SE 13 17 1014.3 - 0.0 - Partly cloudy - - - - -
30/11:00am 26.8 ESE 11 18 1014.7 - 0.0 - - - - - - -
30/10:30am 26.9 ESE 9 14 1014.9 - 0.0 - Partly cloudy - - - - -
30/10:00am 25.6 ESE 9 15 1015.3 - 0.0 - Partly cloudy - - - - -
30/09:30am 25.9 SE 8 12 1015.1 - 0.0 - Partly cloudy - - - - -
30/09:00am 25.8 SE 8 15 1015.0 - 3.0 - Mostly clear - - - - -
30/08:30am 23.6 CALM 0 0 1014.9 - 3.0 - Partly cloudy - - - - -
30/08:00am 21.9 CALM 0 0 1014.8 - 3.0 - Partly cloudy - - - - -
30/07:30am 21.4 CALM 0 0 1014.6 - 3.0 - Partly cloudy - - - - -
30/07:00am 21.0 CALM 0 0 1014.4 - 3.0 - Partly cloudy - - - - -
30/06:30am 20.7 CALM 0 0 1014.1 - 3.0 - Partly cloudy - - - - -
30/06:00am 20.9 CALM 0 0 1013.7 - 3.0 - Partly cloudy - - - - -
30/05:30am 21.1 CALM 0 0 1013.6 - 3.0 - Partly cloudy - - - - -
30/05:00am 21.1 CALM 0 0 1013.4 - 3.0 - Partly cloudy - - - - -
30/04:30am 21.3 CALM 0 0 1013.2 - 3.0 - Partly cloudy - - - - -
30/04:00am 21.5 CALM 0 0 1013.2 - 3.0 - Partly cloudy - - - - -
30/03:30am 21.7 CALM 0 0 1013.0 - 3.0 - Partly cloudy - - - - -
30/03:00am 21.7 CALM 0 0 1013.1 - 3.0 - Mostly cloudy - - - - -
30/02:30am 22.0 CALM 0 0 1013.2 - 3.0 - Partly cloudy - - - - -
30/02:00am 22.5 CALM 0 0 1013.4 - 3.0 - Partly cloudy - - - - -
30/01:30am 22.9 CALM 0 0 1013.8 - 3.0 - - - - - - -
30/01:00am 24.2 SE 7 9 1014.1 - 3.0 - Partly cloudy - - - - -
30/12:30am 24.7 SE 5 9 1014.3 - 3.0 - Partly cloudy - - - - -
30/12:00am 24.6 ESE 6 9 1014.3 - 3.0 - Partly cloudy - - - - -
 
Date/Time
EST
Temp
°C
Wind Pressure Rain since
9am
mm
Weather Cloud Vis
km
Sea
Height
m
Swell
Dir  Spd
kts
Gust
kts
hPa Trend Height
m
Period
s
Dir
29/11:30pm 24.9 ESE 7 10 1014.4 - 3.0 - Partly cloudy - - - - -
29/11:00pm 24.9 ESE 7 9 1014.4 - 3.0 - Cloudy - - - - -
29/10:30pm 24.8 SE 6 9 1014.5 - 3.0 - Partly cloudy - - - - -
29/10:00pm 24.9 ESE 7 11 1014.6 - 3.0 - Partly cloudy - - - - -
29/09:30pm 25.2 ESE 9 14 1014.5 - 3.0 - Cloudy - - - - -
29/09:00pm 25.1 ESE 7 10 1014.4 - 3.0 - Mostly cloudy - - - - -
29/08:30pm 25.1 SE 9 11 1014.2 - 3.0 - Partly cloudy - - - - -
29/08:00pm 25.3 SE 8 12 1014.0 - 3.0 - Cloudy - - - - -
29/07:30pm 25.4 ESE 8 11 1013.6 - 3.0 - Partly cloudy - - - - -
29/07:00pm 25.3 ESE 8 11 1013.4 - 3.0 - Partly cloudy - - - - -
29/06:30pm 25.3 ESE 6 9 1013.2 - 3.0 - Partly cloudy - - - - -
29/06:00pm 25.5 ESE 9 15 1012.8 - 3.0 - Cloudy - - - - -
29/05:30pm 25.9 SE 8 11 1012.5 - 3.0 - Partly cloudy - - - - -
29/05:00pm 26.1 ESE 9 14 1012.2 - 3.0 - Partly cloudy - - - - -
29/04:30pm 26.6 ESE 12 16 1011.8 - 3.0 - Partly cloudy - - - - -
29/04:00pm 26.3 ESE 9 15 1011.4 - 3.0 - Partly cloudy - - - - -
29/03:30pm 26.2 ESE 10 14 1011.5 - 3.0 - Partly cloudy - - - - -
29/03:00pm 25.5 ESE 9 14 1011.7 - 3.0 Recent precip. Mostly cloudy - - - - -
29/02:52pm 25.2 ESE 9 14 1011.7 - 3.0 - Partly cloudy - - - - -
29/02:33pm 25.0 SE 9 14 1011.8 - 2.8 - Partly cloudy - - - - -
29/02:30pm 25.1 SE 10 14 1011.9 - 2.8 - Partly cloudy - - - - -
29/02:00pm 27.2 E 13 19 1012.0 - 0.0 - Partly cloudy - - - - -
29/01:30pm 28.5 ESE 12 19 1012.1 - 0.0 - Partly cloudy - - - - -
29/01:00pm 28.8 E 11 18 1012.4 - 0.0 - Partly cloudy - - - - -
29/12:30pm 28.5 ESE 11 15 1012.7 - 0.0 - Partly cloudy - - - - -
29/12:00pm 28.2 ESE 11 17 1013.1 - 0.0 - Partly cloudy - - - - -
29/11:30am 28.2 ESE 10 15 1013.4 - 0.0 - Partly cloudy - - - - -
29/11:00am 27.9 ESE 13 18 1013.9 - 0.0 - Partly cloudy - - - - -
29/10:30am 28.0 ESE 11 18 1013.9 - 0.0 - Partly cloudy - - - - -
29/10:00am 28.0 ESE 11 16 1013.9 - 0.0 - - - - - - -
29/09:30am 27.7 ESE 10 14 1014.0 - 0.0 - Partly cloudy - - - - -
29/09:00am 27.0 ESE 8 13 1013.9 - 0.0 - Mostly clear - - - - -
29/08:30am 24.1 CALM 0 0 1013.6 - 0.0 - Partly cloudy - - - - -
29/08:00am 23.2 CALM 0 0 1013.6 - 0.0 - - - - - - -
29/07:30am 21.9 CALM 0 0 1013.4 - 0.0 - - - - - - -
29/07:00am 21.1 CALM 0 0 1013.2 - 0.0 - Partly cloudy - - - - -
29/06:30am 21.0 CALM 0 0 1012.9 - 0.0 - Partly cloudy - - - - -
29/06:00am 21.0 CALM 0 0 1012.8 - 0.0 - Partly cloudy - - - - -
29/05:30am 21.0 CALM 0 0 1012.4 - 0.0 - Partly cloudy - - - - -
29/05:00am 21.1 CALM 0 0 1012.2 - 0.0 - - - - - - -
29/04:30am 21.2 CALM 0 0 1012.1 - 0.0 - Partly cloudy - - - - -
29/04:00am 21.3 CALM 0 0 1012.3 - 0.0 - - - - - - -
29/03:30am 21.5 CALM 0 0 1012.2 - 0.0 - - - - - - -
29/03:00am 21.7 CALM 0 0 1012.4 - 0.0 - Mostly clear - - - - -
29/02:30am 21.7 CALM 0 0 1012.6 - 0.0 - Partly cloudy - - - - -
29/02:00am 22.0 CALM 0 0 1012.8 - 0.0 - Partly cloudy - - - - -
29/01:30am 22.0 CALM 0 0 1013.1 - 0.0 - Partly cloudy - - - - -
29/01:00am 21.8 CALM 0 0 1013.4 - 0.0 - Partly cloudy - - - - -
29/12:30am 21.8 CALM 0 0 1013.5 - 0.0 - Partly cloudy - - - - -
29/12:00am 22.0 CALM 0 0 1013.9 - 0.0 - Mostly clear - - - - -
 
Date/Time
EST
Temp
°C
Wind Pressure Rain since
9am
mm
Weather Cloud Vis
km
Sea
Height
m
Swell
Dir  Spd
kts
Gust
kts
hPa Trend Height
m
Period
s
Dir
28/11:30pm 22.0 CALM 0 0 1014.1 - 0.0 - Partly cloudy - - - - -
28/11:00pm 22.2 CALM 0 0 1014.1 - 0.0 - Partly cloudy - - - - -
28/10:30pm 22.2 CALM 0 0 1014.2 - 0.0 - Partly cloudy - - - - -
28/10:00pm 22.3 CALM 0 0 1014.1 - 0.0 - Partly cloudy - - - - -
28/09:30pm 22.6 CALM 0 0 1014.2 - 0.0 - Partly cloudy - - - - -
28/09:00pm 22.7 CALM 0 0 1014.1 - 0.0 - Mostly clear - - - - -
28/08:30pm 22.9 CALM 0 0 1013.8 - 0.0 - Partly cloudy - - - - -
28/08:00pm 23.4 CALM 0 0 1013.3 - 0.0 - Partly cloudy - - - - -
28/07:30pm 24.0 CALM 0 0 1012.8 - 0.0 - Partly cloudy - - - - -
28/07:00pm 25.2 CALM 0 0 1012.3 - 0.0 - Partly cloudy - - - - -
28/06:30pm 25.8 SE 5 8 1012.0 - 0.0 - - - - - - -
28/06:00pm 26.6 SE 9 13 1011.6 - 0.0 - Mostly cloudy - - - - -
28/05:30pm 27.2 SE 11 16 1011.5 - 0.0 - Partly cloudy - - - - -
28/05:00pm 27.5 ESE 11 18 1011.2 - 0.0 - Partly cloudy - - - - -
28/04:30pm 27.9 ESE 12 18 1010.9 - 0.0 - Partly cloudy - - - - -
28/04:00pm 28.3 ESE 11 16 1010.8 - 0.0 - Partly cloudy - - - - -
28/03:30pm 28.5 E 11 17 1010.6 - 0.0 - Partly cloudy - - - - -
28/03:00pm 28.5 ESE 12 18 1010.6 - 0.0 - Mostly clear - - - - -
28/02:30pm 28.6 ESE 10 18 1011.0 - 0.0 - Partly cloudy - - - - -
28/02:00pm 29.0 ESE 11 16 1011.3 - 0.0 - Partly cloudy - - - - -
28/01:30pm 28.9 ESE 10 14 1011.7 - 0.0 - Partly cloudy - - - - -
28/01:00pm 29.2 ESE 10 15 1012.0 - 0.0 - Partly cloudy - - - - -
28/12:30pm 29.0 ESE 11 17 1012.5 - 0.0 - Partly cloudy - - - - -
28/12:00pm 28.4 E 10 15 1012.8 - 0.0 - Mostly clear - - - - -
28/11:30am 28.4 ESE 10 16 1013.3 - 0.0 - Partly cloudy - - - - -
28/11:00am 28.4 ESE 12 17 1013.7 - 0.0 - Partly cloudy - - - - -
28/10:30am 28.5 SE 11 15 1013.9 - 0.0 - Partly cloudy - - - - -
28/10:00am 27.6 SE 7 11 1014.1 - 0.0 - Partly cloudy - - - - -
28/09:30am 26.4 SE 2 7 1014.1 - 0.0 - - - - - - -
28/09:00am 25.0 CALM 0 6 1013.8 - 0.0 - - - - - - -
28/08:30am 23.8 CALM 0 0 1013.6 - 0.0 - Partly cloudy - - - - -
28/08:00am 22.6 CALM 0 0 1013.3 - 0.0 - - - - - - -
28/07:30am 21.6 CALM 0 0 1013.2 - 0.0 - Partly cloudy - - - - -
28/07:00am 20.8 CALM 0 0 1012.8 - 0.0 - Partly cloudy - - - - -
28/06:30am 20.6 CALM 0 0 1012.2 - 0.0 - - - - - - -
28/06:00am 20.6 CALM 0 0 1011.8 - 0.0 - Mostly clear - - - - -
28/05:30am 20.7 CALM 0 0 1011.5 - 0.0 - - - - - - -
28/05:00am 20.8 CALM 0 0 1011.3 - 0.0 - - - - - - -
28/04:30am 21.0 CALM 0 0 1011.1 - 0.0 - - - - - - -
28/04:00am 20.9 CALM 0 0 1011.0 - 0.0 - - - - - - -
28/03:30am 21.1 CALM 0 0 1011.2 - 0.0 - - - - - - -
28/03:00am 21.2 CALM 0 0 1011.3 - 0.0 - - - - - - -
28/02:30am 21.4 CALM 0 0 1011.4 - 0.0 - - - - - - -
28/02:00am 21.5 CALM 0 0 1011.7 - 0.0 - - - - - - -
28/01:30am 21.6 CALM 0 0 1012.0 - 0.0 - - - - - - -
28/01:00am 21.8 CALM 0 0 1012.2 - 0.0 - - - - - - -

Other Formats:

Comma delimited format used in spreadsheet applications
http://www.bom.gov.au/fwo/IDQ60701/IDQ60701.94186.axf

JavaScript Object Notation format (JSON) in row-major order
http://www.bom.gov.au/fwo/IDQ60701/IDQ60701.94186.json